Caspiana, Louisiana
Current Conditions -  °F | °C
As of 10:58 AM on Thursday 30 Oct 2014 (Local Time) from KBAD Reporting Station
Clear Clear  
Wind Chill: 64°   Ceiling: Unl
Heat Index: 64°   Visibility: 10mi
Dew Point: 47°   Wind: 6mph
Humidity: 53%   Direction: 150°SSE
Pressure: 30.18"   Gusts: NA
Location:  32.3171°N, 93.6091°W
Report Text: KBAD 301558Z AUTO 15005KT 10SM CLR 18/08 A3018 RMK AO2 SLP222 T01780082
Loading
Personal Weather Stations






























Interactive Weather Map
Tropical Storm Tracking
New forecast layout! Learn more

10-Day Weather Forecast

Advertisements
Track Severe Weather on mobile